Time;durP1;ratioP1;P1;durP2;ratioP2;P2;SDS_P1;SDS_P2;PMS_P1;PMS_P2;Temp;Humidity;BMP_temperature;BMP_pressure;BME280_temperature;BME280_humidity;BME280_pressure;Samples;Min_cycle;Max_cycle;Signal;HPM_P1;HPM_P2
2023/03/08 00:00:52;;;;;;;0.73;0.73;;;;;;;3.18;72.65;99711.59;6211753;28;20236;-71
2023/03/08 00:04:12;;;;;;;1.57;1.27;;;;;;;2.97;73.13;99712.38;6193915;28;20561;-72
2023/03/08 00:07:34;;;;;;;2.90;1.00;;;;;;;2.95;73.29;99707.19;6205989;28;20224;-71
2023/03/08 00:10:54;;;;;;;1.37;1.10;;;;;;;3.06;72.55;99717.03;6214826;28;20225;-70
2023/03/08 00:14:16;;;;;;;4.27;1.27;;;;;;;3.30;72.46;99712.44;6215324;28;20241;-71
2023/03/08 00:17:39;;;;;;;3.67;1.47;;;;;;;3.24;72.63;99713.78;6195034;28;20232;-71
2023/03/08 00:21:00;;;;;;;1.03;0.93;;;;;;;3.56;71.14;99718.41;6206526;28;20364;-71
2023/03/08 00:24:21;;;;;;;1.40;1.30;;;;;;;3.34;72.37;99710.41;6212249;28;20225;-71
2023/03/08 00:27:42;;;;;;;1.07;1.03;;;;;;;2.98;73.18;99714.09;6203141;28;20225;-71
2023/03/08 00:31:05;;;;;;;2.47;1.10;;;;;;;3.10;73.27;99724.66;6203839;28;20647;-70
2023/03/08 00:34:28;;;;;;;1.73;1.10;;;;;;;3.12;73.35;99728.06;6195628;28;20355;-71
2023/03/08 00:37:48;;;;;;;1.30;1.20;;;;;;;2.98;73.94;99725.56;6220028;28;20360;-70
2023/03/08 00:41:10;;;;;;;1.23;1.13;;;;;;;2.94;74.21;99732.09;6212099;28;20225;-71
2023/03/08 00:44:31;;;;;;;1.60;0.90;;;;;;;3.28;72.00;99727.69;6188235;28;20225;-71
2023/03/08 00:47:52;;;;;;;2.30;1.00;;;;;;;3.51;71.63;99723.25;6199778;28;20220;-71
2023/03/08 00:51:16;;;;;;;0.87;0.87;;;;;;;3.49;71.24;99736.69;6201259;28;20604;-70
2023/03/08 00:54:37;;;;;;;1.27;1.13;;;;;;;3.34;72.82;99732.53;6200278;28;20604;-71
2023/03/08 00:57:58;;;;;;;2.57;1.30;;;;;;;3.41;72.37;99743.56;6206553;28;20573;-70
2023/03/08 01:01:19;;;;;;;1.20;1.10;;;;;;;2.89;74.48;99747.56;6208779;28;20217;-70
2023/03/08 01:04:42;;;;;;;1.10;1.10;;;;;;;3.55;72.67;99754.00;6191434;28;20225;-71
2023/03/08 01:08:05;;;;;;;1.10;1.10;;;;;;;3.01;74.20;99746.66;6202175;28;20236;-71
2023/03/08 01:11:26;;;;;;;1.20;1.20;;;;;;;2.78;75.62;99744.88;6210484;28;20555;-70
2023/03/08 01:14:47;;;;;;;4.20;2.67;;;;;;;3.39;73.70;99741.03;6177798;28;20316;-71
2023/03/08 01:18:09;;;;;;;2.00;1.33;;;;;;;3.59;72.41;99740.31;6204324;28;20229;-70
2023/03/08 01:21:30;;;;;;;2.77;1.27;;;;;;;3.84;71.47;99742.75;6192120;28;20240;-71
2023/03/08 01:24:53;;;;;;;1.93;1.30;;;;;;;3.85;70.86;99736.47;6211012;28;20599;-71
2023/03/08 01:28:14;;;;;;;2.83;1.50;;;;;;;3.98;70.85;99736.34;6197088;28;20232;-71
2023/03/08 01:31:34;;;;;;;1.43;1.10;;;;;;;4.10;70.32;99718.50;6210163;28;20236;-71
2023/03/08 01:34:55;;;;;;;1.53;1.10;;;;;;;4.16;70.14;99716.19;6221366;28;20232;-70
2023/03/08 01:38:16;;;;;;;1.17;1.10;;;;;;;3.97;70.63;99730.16;6210245;28;20236;-71
2023/03/08 01:41:38;;;;;;;1.60;1.37;;;;;;;3.97;70.46;99731.97;6187127;28;20304;-70
2023/03/08 01:45:02;;;;;;;3.13;2.93;;;;;;;4.12;69.87;99728.06;6201454;28;20229;-71
2023/03/08 01:48:31;;;;;;;6.00;1.50;;;;;;;3.43;72.08;99729.19;6200115;28;20506;-71
2023/03/08 01:52:01;;;;;;;1.40;1.30;;;;;;;3.32;73.20;99726.50;6171034;28;20316;-71
2023/03/08 01:55:22;;;;;;;1.77;1.67;;;;;;;2.89;75.30;99722.78;6211246;28;20571;-71
2023/03/08 01:58:48;;;;;;;3.20;1.43;;;;;;;3.27;73.87;99720.69;6206979;28;20230;-71
2023/03/08 02:02:10;;;;;;;3.00;1.40;;;;;;;3.19;74.01;99715.94;6199400;28;20264;-71
2023/03/08 02:05:34;;;;;;;1.40;1.30;;;;;;;3.14;74.53;99717.28;6220550;28;20612;-70
2023/03/08 02:09:04;;;;;;;1.43;1.33;;;;;;;2.90;75.85;99713.84;6212107;28;20232;-71
2023/03/08 02:12:26;;;;;;;2.23;2.13;;;;;;;2.49;78.89;99714.28;6188551;28;20228;-71
2023/03/08 02:15:50;;;;;;;1.57;1.10;;;;;;;2.70;77.92;99710.00;6213438;28;20233;-71
2023/03/08 02:19:20;;;;;;;1.30;1.20;;;;;;;2.83;78.30;99716.13;6208633;28;20225;-71
2023/03/08 02:22:43;;;;;;;1.53;1.43;;;;;;;3.02;78.39;99715.56;6206493;28;20216;-71
2023/03/08 02:26:05;;;;;;;4.17;1.47;;;;;;;2.83;78.74;99710.78;6192005;28;20221;-71
2023/03/08 02:29:26;;;;;;;1.57;1.47;;;;;;;2.62;79.11;99706.22;6211513;28;20221;-70
2023/03/08 02:32:49;;;;;;;1.50;1.40;;;;;;;2.51;79.86;99704.38;6207612;28;20232;-70
2023/03/08 02:36:10;;;;;;;1.03;1.00;;;;;;;2.49;81.38;99718.72;6213626;28;20405;-71
2023/03/08 02:39:32;;;;;;;1.60;1.43;;;;;;;2.87;79.90;99712.25;6200560;28;20229;-71
2023/03/08 02:42:54;;;;;;;1.53;1.43;;;;;;;3.04;79.36;99719.81;6217217;28;20228;-71
2023/03/08 02:46:15;;;;;;;2.60;2.00;;;;;;;2.99;79.84;99711.31;6211592;28;20237;-71
2023/03/08 02:49:36;;;;;;;2.80;2.57;;;;;;;2.83;80.50;99718.78;6209651;28;20229;-71
2023/03/08 02:52:58;;;;;;;2.23;1.90;;;;;;;2.70;81.39;99714.47;6204982;28;20244;-71
2023/03/08 02:56:20;;;;;;;3.00;2.70;;;;;;;2.61;81.81;99723.16;6189413;28;20222;-71
2023/03/08 02:59:42;;;;;;;5.17;3.13;;;;;;;3.24;79.61;99718.25;6212379;28;20638;-71
2023/03/08 03:03:03;;;;;;;3.37;3.00;;;;;;;2.64;81.16;99722.91;6208206;28;20228;-71
2023/03/08 03:06:24;;;;;;;3.03;2.83;;;;;;;2.67;81.61;99701.41;6210964;28;20308;-71
2023/03/08 03:09:49;;;;;;;5.80;2.67;;;;;;;2.68;81.82;99713.75;6177804;28;20609;-71
2023/03/08 03:13:12;;;;;;;2.93;2.23;;;;;;;3.11;80.48;99715.69;6200291;28;20240;-70
2023/03/08 03:16:33;;;;;;;2.33;2.17;;;;;;;2.54;82.55;99711.28;6227836;28;20244;-71
2023/03/08 03:19:53;;;;;;;2.23;2.10;;;;;;;3.10;80.77;99713.16;6203941;28;20232;-70
2023/03/08 03:23:14;;;;;;;5.60;2.60;;;;;;;2.82;81.13;99711.75;6204639;28;20229;-71
2023/03/08 03:26:42;;;;;;;2.77;2.27;;;;;;;2.84;81.39;99704.50;6208636;28;20363;-72
2023/03/08 03:30:07;;;;;;;3.27;2.70;;;;;;;2.93;80.65;99702.94;6221592;28;20355;-71
2023/03/08 03:33:29;;;;;;;2.53;2.37;;;;;;;2.87;80.82;99711.41;6212135;28;20267;-71
2023/03/08 03:36:50;;;;;;;2.43;2.23;;;;;;;2.55;83.15;99712.97;6216125;28;20237;-71
2023/03/08 03:40:13;;;;;;;4.27;3.30;;;;;;;2.78;81.92;99707.63;6193754;28;20745;-71
2023/03/08 03:43:37;;;;;;;3.10;1.83;;;;;;;2.41;82.58;99721.97;6218110;28;20515;-71
2023/03/08 03:47:03;;;;;;;1.40;1.40;;;;;;;2.73;82.53;99706.28;6203045;28;20237;-71
2023/03/08 03:50:24;;;;;;;7.40;3.03;;;;;;;3.01;81.25;99722.69;6213769;28;20229;-71
2023/03/08 03:53:53;;;;;;;1.80;1.70;;;;;;;3.16;80.94;99726.84;6192699;28;20299;-71
2023/03/08 03:57:15;;;;;;;8.37;2.87;;;;;;;3.02;81.15;99726.22;6206774;28;20308;-70
2023/03/08 04:00:37;;;;;;;2.33;2.13;;;;;;;3.24;80.24;99726.25;6202706;28;20236;-70
2023/03/08 04:04:13;;;;;;;3.33;1.83;;;;;;;2.68;81.79;99733.22;6200734;28;20224;-70
2023/03/08 04:07:37;;;;;;;2.23;2.03;;;;;;;3.50;78.67;99727.75;6203994;28;20583;-71
2023/03/08 04:11:00;;;;;;;2.33;2.23;;;;;;;3.20;80.23;99725.63;6216517;28;20224;-70
2023/03/08 04:14:21;;;;;;;4.97;2.53;;;;;;;2.84;81.45;99728.44;6214237;28;20233;-70
2023/03/08 04:17:44;;;;;;;3.67;3.37;;;;;;;3.12;80.08;99728.06;6207091;28;20311;-70
2023/03/08 04:21:07;;;;;;;3.20;3.00;;;;;;;3.24;79.93;99729.75;6214805;28;20548;-70
2023/03/08 04:24:29;;;;;;;6.37;2.80;;;;;;;3.06;81.18;99733.84;6191652;28;20237;-71
2023/03/08 04:27:55;;;;;;;3.37;3.07;;;;;;;3.43;79.41;99725.66;6217510;28;20690;-71
2023/03/08 04:31:18;;;;;;;2.97;2.70;;;;;;;3.23;79.83;99729.88;6214690;28;20241;-71
2023/03/08 04:34:41;;;;;;;2.13;1.97;;;;;;;3.20;80.33;99730.09;6210249;28;20233;-70
2023/03/08 04:38:05;;;;;;;3.80;2.57;;;;;;;3.56;78.14;99731.72;6206075;28;20351;-70
2023/03/08 04:41:27;;;;;;;1.57;1.47;;;;;;;3.40;79.19;99733.91;6195086;28;20236;-71
2023/03/08 04:44:58;;;;;;;3.20;2.50;;;;;;;2.82;81.70;99729.50;6212923;28;20221;-71
2023/03/08 04:48:20;;;;;;;3.33;3.07;;;;;;;2.74;81.94;99732.75;6195285;28;20554;-70
2023/03/08 04:51:42;;;;;;;2.47;2.27;;;;;;;2.97;81.30;99728.34;6190007;28;20683;-70
2023/03/08 04:55:06;;;;;;;5.20;2.23;;;;;;;3.37;79.38;99729.66;6206578;28;20359;-70
2023/03/08 04:58:28;;;;;;;2.23;1.93;;;;;;;3.21;80.09;99729.16;6195605;28;20230;-71
2023/03/08 05:01:50;;;;;;;1.60;1.50;;;;;;;3.28;79.00;99732.16;6200218;28;20232;-70
2023/03/08 05:05:11;;;;;;;2.13;2.00;;;;;;;3.42;79.41;99737.31;6203238;28;20548;-70
2023/03/08 05:08:32;;;;;;;2.23;2.03;;;;;;;2.93;80.21;99740.19;6196100;28;20228;-71
2023/03/08 05:11:55;;;;;;;2.10;1.90;;;;;;;3.35;79.31;99728.06;6188693;28;20228;-70
2023/03/08 05:15:17;;;;;;;1.83;1.73;;;;;;;2.92;80.30;99727.88;6220599;28;20646;-70
2023/03/08 05:18:39;;;;;;;2.50;2.33;;;;;;;2.79;81.34;99724.44;6215021;28;20221;-70
2023/03/08 05:22:01;;;;;;;2.43;2.23;;;;;;;3.23;79.70;99720.06;6193058;28;20233;-70
2023/03/08 05:25:22;;;;;;;2.10;1.90;;;;;;;2.80;80.79;99716.34;6222653;28;20260;-70
2023/03/08 05:28:46;;;;;;;1.97;1.87;;;;;;;3.19;79.13;99723.94;6209398;28;20617;-71
2023/03/08 05:32:10;;;;;;;2.90;2.70;;;;;;;3.37;78.74;99715.50;6202588;28;20229;-70
2023/03/08 05:35:31;;;;;;;2.93;2.73;;;;;;;3.67;77.19;99711.25;6216619;28;20232;-70
2023/03/08 05:38:53;;;;;;;3.87;3.20;;;;;;;3.29;79.40;99715.25;6178924;28;20308;-71
2023/03/08 05:42:14;;;;;;;3.80;3.50;;;;;;;3.03;80.05;99714.56;6200700;28;20244;-70
2023/03/08 05:45:39;;;;;;;5.00;4.23;;;;;;;2.46;82.06;99735.78;6221535;28;20229;-72
2023/03/08 05:49:00;;;;;;;6.33;4.93;;;;;;;2.81;81.48;99725.16;6206247;28;20237;-70
2023/03/08 05:52:24;;;;;;;5.77;5.27;;;;;;;2.92;81.20;99728.69;6194022;28;20237;-70
2023/03/08 05:55:45;;;;;;;5.57;4.00;;;;;;;2.87;81.10;99736.19;6208436;28;20233;-71
2023/03/08 05:59:07;;;;;;;6.67;5.10;;;;;;;2.42;82.57;99737.81;6209212;28;20320;-71
2023/03/08 06:02:29;;;;;;;4.87;4.23;;;;;;;2.94;81.75;99726.78;6177581;28;20252;-70
2023/03/08 06:05:51;;;;;;;9.60;5.33;;;;;;;3.28;79.96;99734.84;6184011;28;20233;-69
2023/03/08 06:09:13;;;;;;;4.50;4.10;;;;;;;3.24;79.42;99744.88;6192112;28;20213;-70
2023/03/08 06:12:36;;;;;;;7.17;5.33;;;;;;;2.33;82.45;99732.34;6212243;28;21072;-72
2023/03/08 06:16:01;;;;;;;6.63;5.67;;;;;;;2.75;80.69;99755.75;6208027;28;20261;-71
2023/03/08 06:19:24;;;;;;;6.07;5.37;;;;;;;2.57;81.36;99738.47;6200539;28;20254;-70
2023/03/08 06:22:48;;;;;;;9.30;5.60;;;;;;;2.92;80.41;99728.69;6182706;28;21036;-70
2023/03/08 06:26:11;;;;;;;6.80;5.93;;;;;;;2.94;80.63;99725.94;6229199;28;20252;-71
2023/03/08 06:29:34;;;;;;;7.87;5.10;;;;;;;2.72;80.95;99732.03;6200744;28;20236;-71
2023/03/08 06:32:57;;;;;;;6.00;4.40;;;;;;;2.79;81.06;99730.63;6203180;28;20244;-68
2023/03/08 06:36:21;;;;;;;6.57;4.80;;;;;;;2.93;80.18;99725.09;6214645;28;20237;-71
2023/03/08 06:39:44;;;;;;;6.40;5.47;;;;;;;3.02;80.10;99720.88;6183829;28;20615;-70
2023/03/08 06:43:05;;;;;;;8.43;4.60;;;;;;;3.35;79.27;99725.41;6188103;28;20332;-70
2023/03/08 06:46:27;;;;;;;7.20;4.93;;;;;;;3.88;77.31;99722.06;6208071;28;20564;-68
2023/03/08 06:49:48;;;;;;;8.60;6.27;;;;;;;3.33;77.94;99727.34;6178203;28;20536;-69
2023/03/08 06:53:10;;;;;;;4.70;3.53;;;;;;;3.45;76.96;99729.06;6190621;28;20217;-68
2023/03/08 06:56:40;;;;;;;8.20;4.40;;;;;;;3.38;77.65;99722.53;6197529;28;20229;-69
2023/03/08 07:00:02;;;;;;;10.03;4.23;;;;;;;3.38;77.82;99726.00;6210082;28;20264;-71
2023/03/08 07:03:23;;;;;;;5.20;4.70;;;;;;;3.50;76.96;99732.22;6207811;28;20228;-64
2023/03/08 07:06:44;;;;;;;8.13;4.73;;;;;;;3.11;78.75;99742.31;6208399;28;20871;-65
2023/03/08 07:10:09;;;;;;;11.17;4.67;;;;;;;3.40;77.56;99729.41;6200503;28;20502;-67
2023/03/08 07:13:30;;;;;;;8.57;5.20;;;;;;;3.06;78.82;99747.16;6199553;28;25433;-68
2023/03/08 07:16:51;;;;;;;5.63;4.80;;;;;;;3.38;77.18;99734.00;6175741;28;20241;-69
2023/03/08 07:20:14;;;;;;;6.80;6.10;;;;;;;4.15;75.13;99737.66;6214313;28;20229;-67
2023/03/08 07:23:35;;;;;;;5.88;5.30;;;;;;;4.43;79.05;99747.75;6206181;28;20573;-73
2023/03/08 07:26:57;;;;;;;11.02;7.85;;;;;;;3.93;75.19;99746.50;6188116;28;20744;-68
2023/03/08 07:30:19;;;;;;;11.80;5.40;;;;;;;3.62;76.43;99739.25;6214890;28;20233;-66
2023/03/08 07:33:40;;;;;;;6.93;5.37;;;;;;;3.90;75.16;99731.59;6188829;28;20647;-67
2023/03/08 07:37:01;;;;;;;6.67;4.33;;;;;;;4.67;71.94;99725.22;6202952;28;20244;-67
2023/03/08 07:40:22;;;;;;;7.07;5.20;;;;;;;5.22;70.10;99723.25;6226529;28;20836;-68
2023/03/08 07:43:44;;;;;;;5.93;4.53;;;;;;;4.95;69.51;99723.78;6205610;28;20224;-67
2023/03/08 07:47:12;;;;;;;7.10;3.83;;;;;;;4.69;70.88;99723.28;6190781;28;20233;-68
2023/03/08 07:50:33;;;;;;;6.70;4.63;;;;;;;4.18;71.98;99724.06;6216196;28;20603;-68
2023/03/08 07:53:54;;;;;;;10.70;6.17;;;;;;;4.02;73.76;99727.13;6193531;28;20618;-67
2023/03/08 07:57:15;;;;;;;7.47;5.20;;;;;;;4.39;71.97;99733.84;6207408;28;20236;-66
2023/03/08 08:00:37;;;;;;;9.57;6.00;;;;;;;4.97;70.13;99734.31;6216379;28;20570;-71
2023/03/08 08:03:58;;;;;;;9.80;6.20;;;;;;;3.85;73.02;99743.59;6204052;28;20213;-69
2023/03/08 08:07:19;;;;;;;9.70;6.10;;;;;;;3.72;74.34;99737.53;6201027;28;20229;-69
2023/03/08 08:10:40;;;;;;;9.97;7.07;;;;;;;3.87;73.65;99728.34;6216534;28;20543;-68
2023/03/08 08:14:01;;;;;;;9.93;5.77;;;;;;;4.10;73.55;99730.00;6213739;28;20320;-69
2023/03/08 08:17:23;;;;;;;11.10;7.90;;;;;;;4.63;71.76;99730.97;6207081;28;20236;-68
2023/03/08 08:20:44;;;;;;;9.33;7.73;;;;;;;4.55;71.44;99723.59;6221963;28;20233;-68
2023/03/08 08:24:06;;;;;;;12.77;6.80;;;;;;;4.31;71.65;99725.63;6216941;28;20294;-69
2023/03/08 08:27:26;;;;;;;12.43;6.80;;;;;;;4.67;70.68;99719.06;6207401;28;20236;-69
2023/03/08 08:30:55;;;;;;;8.17;6.87;;;;;;;4.95;70.12;99707.75;6219841;28;20656;-69
2023/03/08 08:34:18;;;;;;;11.07;7.63;;;;;;;4.47;70.77;99706.50;6196806;28;20236;-69
2023/03/08 08:37:39;;;;;;;9.67;6.23;;;;;;;4.52;70.85;99715.84;6200007;28;20221;-68
2023/03/08 08:41:00;;;;;;;11.17;6.83;;;;;;;4.78;68.67;99711.00;6211983;28;20233;-69
2023/03/08 08:44:21;;;;;;;8.00;6.17;;;;;;;4.30;70.82;99718.56;6214527;28;20316;-69
2023/03/08 08:47:42;;;;;;;9.60;6.43;;;;;;;5.07;67.08;99722.75;6207452;28;20232;-69
2023/03/08 08:51:05;;;;;;;8.90;6.03;;;;;;;4.25;70.66;99722.59;6218216;28;20594;-68
2023/03/08 08:54:26;;;;;;;9.20;5.20;;;;;;;4.26;71.54;99729.59;6219854;28;20233;-69
2023/03/08 08:57:47;;;;;;;7.53;4.83;;;;;;;4.73;69.53;99727.41;6205520;28;20220;-70
2023/03/08 09:01:16;;;;;;;6.47;5.77;;;;;;;4.51;70.04;99734.63;6216748;28;20228;-69
2023/03/08 09:04:37;;;;;;;6.70;4.47;;;;;;;4.26;71.50;99732.28;6212490;28;20229;-69
2023/03/08 09:08:01;;;;;;;14.07;6.23;;;;;;;5.01;69.48;99733.09;6188030;28;20233;-68
2023/03/08 09:11:23;;;;;;;6.17;4.27;;;;;;;4.07;72.55;99737.44;6208817;28;20329;-68
2023/03/08 09:14:44;;;;;;;5.93;4.27;;;;;;;4.33;71.56;99737.00;6202207;28;20274;-68
2023/03/08 09:18:05;;;;;;;7.27;5.80;;;;;;;4.26;71.13;99735.78;6216672;28;20469;-69
2023/03/08 09:21:28;;;;;;;5.40;4.13;;;;;;;4.57;70.03;99739.47;6216986;28;20225;-69
2023/03/08 09:24:50;;;;;;;4.90;3.80;;;;;;;4.68;69.97;99729.59;6183452;28;20245;-68
2023/03/08 09:28:14;;;;;;;7.20;5.37;;;;;;;3.84;72.30;99726.75;6200685;28;20580;-68
2023/03/08 09:31:37;;;;;;;6.97;4.30;;;;;;;4.58;70.40;99723.34;6210452;28;20587;-69
2023/03/08 09:34:57;;;;;;;6.73;4.63;;;;;;;5.24;67.79;99723.97;6216057;28;20228;-68
2023/03/08 09:38:18;;;;;;;5.20;3.87;;;;;;;5.51;66.29;99709.09;6210445;28;20236;-68
2023/03/08 09:41:48;;;;;;;5.27;4.10;;;;;;;4.63;68.12;99721.13;6209177;28;20248;-69
2023/03/08 09:45:23;;;;;;;9.53;5.03;;;;;;;4.81;68.02;99716.94;6212488;28;20577;-69
2023/03/08 09:48:48;;;;;;;6.37;4.83;;;;;;;4.96;67.39;99716.63;6215521;28;20240;-70
2023/03/08 09:52:17;;;;;;;12.27;6.07;;;;;;;4.54;69.70;99711.22;6200959;28;20232;-68
2023/03/08 09:55:45;;;;;;;8.97;4.50;;;;;;;4.35;70.88;99716.38;6228293;28;20247;-70
2023/03/08 09:59:13;;;;;;;10.63;5.53;;;;;;;4.21;71.37;99710.47;6228512;28;20227;-69
2023/03/08 10:02:44;;;;;;;5.33;3.90;;;;;;;5.22;67.91;99700.06;6211182;28;20514;-69
2023/03/08 10:06:15;;;;;;;8.40;4.80;;;;;;;4.86;69.01;99703.19;6219533;28;20327;-69
2023/03/08 10:09:40;;;;;;;5.87;4.83;;;;;;;5.45;67.07;99690.06;6222087;28;20316;-69
2023/03/08 10:13:16;;;;;;;10.10;5.80;;;;;;;5.21;67.37;99687.72;6211508;28;20236;-70
2023/03/08 10:16:43;;;;;;;5.87;4.87;;;;;;;5.00;67.97;99686.00;6219834;28;20522;-69
2023/03/08 10:20:12;;;;;;;5.13;4.63;;;;;;;5.02;67.24;99686.72;6214774;28;20323;-70
2023/03/08 10:23:33;;;;;;;5.47;4.53;;;;;;;4.26;70.98;99690.44;6205292;28;20575;-69
2023/03/08 10:27:00;;;;;;;7.83;4.60;;;;;;;4.79;69.44;99684.19;6209813;28;20217;-69
2023/03/08 10:30:32;;;;;;;6.33;4.07;;;;;;;5.47;66.38;99678.28;6235310;28;20229;-69
2023/03/08 10:34:02;;;;;;;5.40;3.87;;;;;;;6.15;63.84;99672.19;6229270;28;20248;-69
2023/03/08 10:37:30;;;;;;;7.00;3.13;;;;;;;5.09;66.11;99682.56;6208016;28;20338;-69
2023/03/08 10:40:59;;;;;;;5.87;3.93;;;;;;;5.59;63.84;99671.84;6214631;28;20256;-69
2023/03/08 10:44:32;;;;;;;5.60;3.50;;;;;;;6.50;60.95;99660.97;6224892;28;20225;-69
2023/03/08 10:47:55;;;;;;;7.30;4.77;;;;;;;5.35;62.96;99659.78;6205899;28;20229;-69
2023/03/08 10:51:19;;;;;;;5.07;4.00;;;;;;;4.78;65.84;99662.94;6215903;28;20240;-69
2023/03/08 10:54:41;;;;;;;5.87;3.67;;;;;;;5.09;65.25;99645.19;6231427;28;20548;-69
2023/03/08 10:58:02;;;;;;;3.60;3.10;;;;;;;5.01;65.10;99660.97;6207065;28;20233;-69
2023/03/08 11:01:25;;;;;;;6.37;5.50;;;;;;;5.18;64.38;99655.91;6219111;28;20564;-68
2023/03/08 11:04:51;;;;;;;6.50;3.73;;;;;;;5.71;63.45;99653.06;6204328;28;20224;-69
2023/03/08 11:08:19;;;;;;;6.30;3.60;;;;;;;5.51;63.72;99650.31;6207655;28;20232;-70
2023/03/08 11:11:41;;;;;;;4.10;2.83;;;;;;;6.04;61.97;99642.91;6214422;28;20228;-68
2023/03/08 11:15:12;;;;;;;3.83;3.20;;;;;;;7.35;58.42;99635.06;6214485;28;20517;-69
2023/03/08 11:18:46;;;;;;;6.10;3.77;;;;;;;7.15;57.31;99636.94;6202500;28;20229;-69
2023/03/08 11:22:21;;;;;;;3.63;3.30;;;;;;;9.07;52.40;99616.94;6208721;28;20524;-69
2023/03/08 11:25:47;;;;;;;5.20;3.60;;;;;;;9.75;49.14;99617.81;6222587;28;20283;-69
2023/03/08 11:29:25;;;;;;;5.47;4.17;;;;;;;12.48;42.32;99614.00;6201635;28;20587;-69
2023/03/08 11:33:01;;;;;;;6.97;3.70;;;;;;;11.39;43.33;99615.00;6209314;28;20606;-69
2023/03/08 11:36:28;;;;;;;3.30;2.90;;;;;;;16.21;35.83;99592.06;6223108;28;20237;-69
2023/03/08 11:40:01;;;;;;;3.17;2.30;;;;;;;17.86;31.57;99591.13;6181871;28;20366;-69
2023/03/08 11:43:36;;;;;;;3.50;3.20;;;;;;;20.18;27.46;99592.56;6214393;28;20681;-69
2023/03/08 11:47:18;;;;;;;3.27;2.40;;;;;;;16.94;28.83;99596.66;6207425;28;20332;-70
2023/03/08 11:50:45;;;;;;;3.30;2.50;;;;;;;13.12;35.98;99605.38;6222640;28;20315;-69
2023/03/08 11:54:15;;;;;;;3.00;2.70;;;;;;;12.60;37.90;99605.28;6204938;28;20237;-69
2023/03/08 11:57:41;;;;;;;3.83;2.33;;;;;;;12.29;40.05;99604.50;6207822;28;20236;-69
2023/03/08 12:01:09;;;;;;;7.17;3.63;;;;;;;12.49;38.98;99600.31;6222443;28;20327;-68
2023/03/08 12:04:37;;;;;;;5.80;2.90;;;;;;;14.36;35.88;99590.88;6223148;28;20269;-69
2023/03/08 12:08:02;;;;;;;3.03;2.23;;;;;;;19.27;28.77;99583.41;6210043;28;20252;-69
2023/03/08 12:11:29;;;;;;;3.33;3.03;;;;;;;18.71;28.44;99582.59;6220082;28;20295;-69
2023/03/08 12:14:56;;;;;;;2.80;2.13;;;;;;;17.05;29.88;99582.41;6205545;28;20233;-69
2023/03/08 12:18:42;;;;;;;3.97;3.67;;;;;;;13.51;34.33;99584.38;6206173;28;20228;-69
2023/03/08 12:22:18;;;;;;;3.00;2.50;;;;;;;13.79;33.79;99579.09;6202612;28;20233;-70
2023/03/08 12:25:42;;;;;;;5.10;2.73;;;;;;;15.02;33.43;99570.63;6214789;28;20225;-70
2023/03/08 12:29:11;;;;;;;2.27;2.07;;;;;;;16.28;30.41;99570.34;6214078;28;20347;-69
2023/03/08 12:32:36;;;;;;;3.33;3.10;;;;;;;14.19;33.91;99577.72;6198607;28;20236;-70
2023/03/08 12:36:00;;;;;;;4.40;3.33;;;;;;;15.32;32.76;99575.88;6218823;28;20229;-69
2023/03/08 12:39:27;;;;;;;2.43;2.17;;;;;;;12.78;36.19;99577.97;6201117;28;20622;-70
2023/03/08 12:42:49;;;;;;;3.63;2.60;;;;;;;11.85;37.89;99579.91;6209377;28;20248;-69
2023/03/08 12:46:11;;;;;;;4.33;3.20;;;;;;;9.89;42.46;99583.03;6215031;28;20233;-69
2023/03/08 12:49:35;;;;;;;5.27;2.50;;;;;;;8.36;44.37;99576.75;6215790;28;20231;-69
2023/03/08 12:52:57;;;;;;;4.83;2.80;;;;;;;10.17;41.91;99565.66;6202063;28;20626;-68
2023/03/08 12:56:24;;;;;;;3.63;3.20;;;;;;;9.81;41.96;99574.09;6205507;28;20312;-69
2023/03/08 12:59:45;;;;;;;4.70;3.63;;;;;;;10.40;40.34;99569.41;6196498;28;20233;-69
2023/03/08 13:03:26;;;;;;;3.50;3.20;;;;;;;12.10;37.90;99566.31;6210245;28;20316;-69
2023/03/08 13:07:13;;;;;;;4.73;3.73;;;;;;;10.59;39.55;99570.91;6212325;28;20351;-70
2023/03/08 13:10:38;;;;;;;8.63;4.93;;;;;;;10.00;42.01;99571.97;6212024;28;20225;-69
2023/03/08 13:14:00;;;;;;;4.50;3.20;;;;;;;10.54;41.57;99575.09;6217337;28;20228;-68
2023/03/08 13:17:38;;;;;;;3.90;3.60;;;;;;;11.53;40.00;99571.09;6205431;28;20237;-69
2023/03/08 13:21:26;;;;;;;4.33;3.77;;;;;;;10.99;38.69;99570.88;6219000;28;20228;-69
2023/03/08 13:24:54;;;;;;;4.37;3.33;;;;;;;12.28;37.28;99569.56;6183232;28;20359;-69
2023/03/08 13:28:19;;;;;;;3.93;3.63;;;;;;;11.71;37.37;99580.66;6199637;28;20236;-70
2023/03/08 13:31:40;;;;;;;4.57;4.10;;;;;;;12.03;38.66;99577.81;6210945;28;20228;-69
2023/03/08 13:35:02;;;;;;;6.53;5.10;;;;;;;11.59;39.85;99575.78;6212858;28;20642;-70
2023/03/08 13:38:26;;;;;;;4.57;4.00;;;;;;;13.15;37.06;99577.13;6212099;28;20245;-69
2023/03/08 13:41:48;;;;;;;4.57;3.83;;;;;;;13.55;35.13;99574.00;6206369;28;20254;-70
2023/03/08 13:45:17;;;;;;;5.27;3.53;;;;;;;13.85;33.90;99580.22;6212979;28;20315;-70
2023/03/08 13:48:38;;;;;;;5.07;3.40;;;;;;;13.84;34.65;99570.41;6195733;28;20266;-70
2023/03/08 13:52:01;;;;;;;4.70;2.43;;;;;;;13.34;35.42;99573.88;6205309;28;20225;-69
2023/03/08 13:55:29;;;;;;;2.67;2.47;;;;;;;12.35;37.73;99582.16;6208988;28;20260;-69
2023/03/08 13:58:53;;;;;;;3.37;3.03;;;;;;;12.94;36.89;99568.84;6199721;28;20233;-69
2023/03/08 14:02:20;;;;;;;3.73;3.20;;;;;;;13.56;36.42;99568.38;6205598;28;20233;-70
2023/03/08 14:05:44;;;;;;;3.40;3.10;;;;;;;13.57;36.34;99561.09;6216544;28;20225;-70
2023/03/08 14:09:06;;;;;;;3.27;2.27;;;;;;;13.55;36.30;99568.56;6201780;28;20224;-70
2023/03/08 14:12:29;;;;;;;2.73;2.50;;;;;;;12.87;36.56;99567.91;6207397;28;20229;-70
2023/03/08 14:15:54;;;;;;;2.23;2.03;;;;;;;12.30;37.32;99571.06;6212116;28;20229;-69
2023/03/08 14:19:23;;;;;;;2.87;2.57;;;;;;;12.00;38.19;99572.75;6213435;28;20545;-70
2023/03/08 14:22:48;;;;;;;6.13;2.87;;;;;;;10.24;40.60;99569.34;6201809;28;20232;-70
2023/03/08 14:26:30;;;;;;;2.03;1.93;;;;;;;10.64;40.68;99570.41;6218470;28;20328;-69
2023/03/08 14:30:02;;;;;;;2.20;1.40;;;;;;;10.98;40.33;99560.25;6179837;28;20221;-69
2023/03/08 14:33:27;;;;;;;1.53;1.40;;;;;;;10.74;40.04;99561.16;6197258;28;20546;-68
2023/03/08 14:36:58;;;;;;;2.60;1.90;;;;;;;11.10;39.55;99553.50;6205485;28;20221;-70
2023/03/08 14:40:23;;;;;;;1.77;1.53;;;;;;;11.13;40.09;99558.56;6214107;28;20264;-69
2023/03/08 14:43:48;;;;;;;1.30;1.13;;;;;;;10.80;41.47;99559.63;6215747;28;20236;-69
2023/03/08 14:47:10;;;;;;;1.60;1.27;;;;;;;11.40;39.82;99549.19;6204644;28;20801;-69
2023/03/08 14:50:33;;;;;;;5.57;1.50;;;;;;;11.10;38.79;99540.00;6224028;28;20237;-70
2023/03/08 14:54:01;;;;;;;2.37;1.47;;;;;;;11.37;38.43;99539.59;6220127;28;20240;-69
2023/03/08 14:57:25;;;;;;;1.20;1.10;;;;;;;11.35;38.71;99536.22;6200457;28;20232;-69
2023/03/08 15:00:50;;;;;;;1.97;1.70;;;;;;;11.44;37.85;99534.34;6216063;28;20233;-70
2023/03/08 15:04:17;;;;;;;1.53;1.30;;;;;;;10.99;38.36;99532.31;6222840;28;20522;-69
2023/03/08 15:07:38;;;;;;;1.63;1.53;;;;;;;10.72;39.29;99525.41;6210506;28;20307;-70
2023/03/08 15:11:00;;;;;;;1.83;1.43;;;;;;;10.74;40.15;99525.25;6222609;28;20225;-69
2023/03/08 15:14:21;;;;;;;2.10;1.43;;;;;;;10.29;41.29;99520.38;6217219;28;20233;-68
2023/03/08 15:17:43;;;;;;;2.47;2.30;;;;;;;10.31;41.42;99532.69;6207892;28;20320;-69
2023/03/08 15:21:05;;;;;;;2.53;2.33;;;;;;;10.44;41.59;99529.47;6219033;28;20240;-69
2023/03/08 15:24:25;;;;;;;2.00;1.43;;;;;;;9.94;42.63;99529.56;6201820;28;20437;-69
2023/03/08 15:27:48;;;;;;;2.00;1.70;;;;;;;9.56;43.13;99527.44;6214981;28;20252;-69
2023/03/08 15:31:08;;;;;;;1.10;1.10;;;;;;;9.45;43.23;99517.81;6218215;28;20236;-70
2023/03/08 15:34:29;;;;;;;2.13;1.13;;;;;;;9.77;43.14;99527.00;6217774;28;20224;-70
2023/03/08 15:37:51;;;;;;;0.90;0.90;;;;;;;9.84;42.99;99526.19;6211281;28;20328;-70
2023/03/08 15:41:12;;;;;;;1.53;1.37;;;;;;;9.79;42.58;99523.13;6212000;28;20225;-69
2023/03/08 15:44:35;;;;;;;1.70;1.60;;;;;;;9.59;43.34;99522.59;6223078;28;20251;-70
2023/03/08 15:47:57;;;;;;;10.23;1.60;;;;;;;9.65;43.41;99521.94;6196933;28;20225;-70
2023/03/08 15:51:19;;;;;;;1.70;1.60;;;;;;;9.40;44.05;99520.16;6205863;28;20233;-69
2023/03/08 15:54:43;;;;;;;1.90;1.80;;;;;;;9.54;43.90;99510.63;6219496;28;20260;-69
2023/03/08 15:58:04;;;;;;;1.83;1.57;;;;;;;9.03;44.09;99519.66;6216664;28;20236;-69
2023/03/08 16:01:27;;;;;;;1.93;1.33;;;;;;;9.10;44.77;99526.06;6215384;28;20673;-69
2023/03/08 16:04:48;;;;;;;2.23;1.20;;;;;;;9.17;44.17;99523.56;6196670;28;20690;-69
2023/03/08 16:08:09;;;;;;;1.83;1.53;;;;;;;9.11;45.16;99514.31;6219549;28;20228;-69